Time;durP1;ratioP1;P1;durP2;ratioP2;P2;SDS_P1;SDS_P2;PMS_P1;PMS_P2;Temp;Humidity;BMP_temperature;BMP_pressure;BME280_temperature;BME280_humidity;BME280_pressure;Samples;Min_cycle;Max_cycle;Signal;HPM_P1;HPM_P2
2024/02/24 00:00:40;;;;;;;9.93;4.03;;;;;;;;;;5058083;28;20084;-69
2024/02/24 00:03:06;;;;;;;8.02;4.05;;;;;;;;;;5055290;28;20376;-68
2024/02/24 00:05:32;;;;;;;9.73;3.28;;;;;;;;;;5050069;28;20472;-70
2024/02/24 00:07:57;;;;;;;11.70;5.15;;;;;;;;;;5050168;28;20048;-69
2024/02/24 00:10:22;;;;;;;5.32;3.30;;;;;;;;;;5036336;28;20032;-69
2024/02/24 00:12:48;;;;;;;8.85;3.95;;;;;;;;;;5052317;28;20032;-68
2024/02/24 00:15:14;;;;;;;6.30;2.80;;;;;;;;;;5035696;28;20045;-68
2024/02/24 00:17:39;;;;;;;6.05;2.97;;;;;;;;;;5031243;28;20051;-68
2024/02/24 00:20:06;;;;;;;5.75;3.33;;;;;;;;;;5058993;28;20036;-67
2024/02/24 00:22:31;;;;;;;5.97;3.22;;;;;;;;;;5052661;28;20603;-68
2024/02/24 00:24:57;;;;;;;5.25;2.83;;;;;;;;;;5051923;28;20055;-69
2024/02/24 00:27:22;;;;;;;5.78;3.35;;;;;;;;;;5051621;28;20084;-69
2024/02/24 00:29:47;;;;;;;6.15;3.38;;;;;;;;;;5052420;28;20538;-69
2024/02/24 00:32:13;;;;;;;7.00;3.40;;;;;;;;;;5051455;28;20035;-68
2024/02/24 00:34:38;;;;;;;5.40;3.97;;;;;;;;;;5051216;28;20045;-68
2024/02/24 00:37:04;;;;;;;11.07;4.28;;;;;;;;;;5051337;28;20127;-68
2024/02/24 00:39:30;;;;;;;8.32;3.50;;;;;;;;;;5051837;28;20037;-68
2024/02/24 00:41:55;;;;;;;9.15;3.53;;;;;;;;;;5050757;28;20480;-67
2024/02/24 00:44:21;;;;;;;7.57;3.78;;;;;;;;;;5051740;28;20032;-67
2024/02/24 00:46:46;;;;;;;5.78;3.17;;;;;;;;;;5051247;28;20500;-68
2024/02/24 00:49:11;;;;;;;9.52;3.80;;;;;;;;;;5051521;28;20029;-67
2024/02/24 00:51:37;;;;;;;4.20;2.80;;;;;;;;;;5051421;28;20485;-68
2024/02/24 00:54:04;;;;;;;4.80;2.58;;;;;;;;;;5051875;28;20027;-68
2024/02/24 00:56:29;;;;;;;4.32;2.35;;;;;;;;;;5050420;28;20044;-68
2024/02/24 00:58:55;;;;;;;6.03;3.00;;;;;;;;;;5046833;28;20036;-68
2024/02/24 01:01:21;;;;;;;4.05;2.97;;;;;;;;;;5050093;28;20111;-68
2024/02/24 01:03:46;;;;;;;5.85;3.20;;;;;;;;;;5051573;28;20044;-68
2024/02/24 01:06:11;;;;;;;6.35;2.63;;;;;;;;;;5050440;28;20078;-68
2024/02/24 01:08:36;;;;;;;10.30;3.20;;;;;;;;;;5053985;28;20075;-68
2024/02/24 01:11:02;;;;;;;4.68;2.42;;;;;;;;;;5056725;28;20116;-68
2024/02/24 01:13:27;;;;;;;12.27;3.42;;;;;;;;;;5048516;28;20111;-67
2024/02/24 01:15:53;;;;;;;7.35;3.15;;;;;;;;;;5046947;28;20084;-68
2024/02/24 01:18:20;;;;;;;4.80;3.20;;;;;;;;;;5044843;28;20032;-69
2024/02/24 01:20:48;;;;;;;6.47;3.00;;;;;;;;;;5053472;28;20045;-68
2024/02/24 01:23:14;;;;;;;5.53;2.58;;;;;;;;;;5050642;28;20034;-68
2024/02/24 01:25:39;;;;;;;6.28;3.63;;;;;;;;;;5051432;28;20171;-67
2024/02/24 01:28:05;;;;;;;7.85;2.42;;;;;;;;;;5052728;28;20115;-68
2024/02/24 01:30:31;;;;;;;7.35;2.50;;;;;;;;;;5058686;28;20064;-67
2024/02/24 01:32:56;;;;;;;9.85;3.08;;;;;;;;;;5054885;28;20032;-68
2024/02/24 01:35:21;;;;;;;5.50;2.30;;;;;;;;;;5052736;28;20040;-67
2024/02/24 01:37:47;;;;;;;5.32;2.67;;;;;;;;;;5044432;28;20052;-68
2024/02/24 01:40:12;;;;;;;4.47;2.60;;;;;;;;;;5058245;28;20047;-69
2024/02/24 01:42:37;;;;;;;5.25;2.75;;;;;;;;;;5049902;28;20067;-67
2024/02/24 01:45:03;;;;;;;5.13;2.67;;;;;;;;;;5037187;28;20025;-68
2024/02/24 01:47:29;;;;;;;3.88;1.83;;;;;;;;;;5056665;28;20127;-68
2024/02/24 01:49:55;;;;;;;6.03;3.10;;;;;;;;;;5052298;28;20119;-68
2024/02/24 01:52:20;;;;;;;3.67;1.75;;;;;;;;;;5046616;28;20020;-68
2024/02/24 01:54:46;;;;;;;5.60;2.85;;;;;;;;;;5052360;28;20048;-67
2024/02/24 01:57:12;;;;;;;4.32;2.28;;;;;;;;;;5053538;28;20047;-68
2024/02/24 01:59:38;;;;;;;3.10;1.77;;;;;;;;;;5038205;28;20056;-67
2024/02/24 02:02:03;;;;;;;5.28;2.00;;;;;;;;;;5050244;28;20033;-69
2024/02/24 02:04:28;;;;;;;3.60;2.42;;;;;;;;;;5048037;28;20116;-71
2024/02/24 02:06:54;;;;;;;4.20;1.90;;;;;;;;;;5048138;28;20551;-68
2024/02/24 02:09:19;;;;;;;3.67;1.85;;;;;;;;;;5048201;28;20586;-67
2024/02/24 02:11:45;;;;;;;7.13;2.70;;;;;;;;;;5049281;28;20045;-68
2024/02/24 02:14:11;;;;;;;3.17;1.90;;;;;;;;;;5050178;28;20035;-69
2024/02/24 02:16:37;;;;;;;3.90;1.90;;;;;;;;;;5048753;28;20095;-67
2024/02/24 02:19:03;;;;;;;7.13;2.03;;;;;;;;;;5050164;28;20097;-67
2024/02/24 02:21:29;;;;;;;8.93;2.55;;;;;;;;;;5050127;28;20029;-68
2024/02/24 02:23:54;;;;;;;3.92;2.17;;;;;;;;;;5036292;28;20033;-67
2024/02/24 02:26:21;;;;;;;3.97;1.70;;;;;;;;;;5049361;28;20107;-70
2024/02/24 02:28:46;;;;;;;4.75;2.22;;;;;;;;;;5050329;28;20040;-70
2024/02/24 02:31:11;;;;;;;3.35;2.33;;;;;;;;;;5049005;28;20041;-69
2024/02/24 02:33:37;;;;;;;4.85;2.47;;;;;;;;;;5049881;28;20107;-69
2024/02/24 02:36:02;;;;;;;13.20;2.53;;;;;;;;;;5049698;28;20068;-69
2024/02/24 02:38:28;;;;;;;3.42;1.70;;;;;;;;;;5049454;28;20531;-70
2024/02/24 02:40:53;;;;;;;3.42;1.80;;;;;;;;;;5049830;28;20044;-69
2024/02/24 02:43:18;;;;;;;3.90;1.35;;;;;;;;;;5049658;28;20057;-70
2024/02/24 02:45:43;;;;;;;4.88;1.80;;;;;;;;;;5049346;28;20035;-69
2024/02/24 02:48:10;;;;;;;4.75;1.77;;;;;;;;;;5049744;28;20040;-70
2024/02/24 02:50:35;;;;;;;2.85;1.58;;;;;;;;;;5042743;28;20029;-70
2024/02/24 02:53:01;;;;;;;3.20;2.13;;;;;;;;;;5049498;28;20029;-70
2024/02/24 02:55:26;;;;;;;3.03;1.67;;;;;;;;;;5046043;28;20116;-71
2024/02/24 02:57:51;;;;;;;2.75;1.35;;;;;;;;;;5049582;28;20017;-69
2024/02/24 03:00:17;;;;;;;3.35;1.65;;;;;;;;;;5050584;28;20037;-69
2024/02/24 03:02:42;;;;;;;2.35;1.30;;;;;;;;;;5047509;28;20361;-70
2024/02/24 03:05:08;;;;;;;2.75;1.15;;;;;;;;;;5051695;28;20060;-70
2024/02/24 03:07:33;;;;;;;7.95;1.70;;;;;;;;;;5048127;28;20037;-70
2024/02/24 03:09:58;;;;;;;2.10;1.35;;;;;;;;;;5049153;28;20033;-70
2024/02/24 03:12:24;;;;;;;4.88;1.98;;;;;;;;;;5048655;28;20029;-69
2024/02/24 03:14:49;;;;;;;4.32;1.77;;;;;;;;;;5050538;28;20060;-70
2024/02/24 03:17:14;;;;;;;2.25;1.38;;;;;;;;;;5040999;28;20069;-69
2024/02/24 03:19:40;;;;;;;1.13;1.02;;;;;;;;;;5047898;28;20036;-67
2024/02/24 03:22:05;;;;;;;2.28;1.30;;;;;;;;;;5036723;28;20032;-67
2024/02/24 03:24:31;;;;;;;4.50;2.10;;;;;;;;;;5052909;28;20550;-67
2024/02/24 03:26:56;;;;;;;3.03;1.27;;;;;;;;;;5052685;28;20029;-67
2024/02/24 03:29:21;;;;;;;1.65;1.15;;;;;;;;;;5053416;28;20024;-67
2024/02/24 03:31:47;;;;;;;2.20;1.30;;;;;;;;;;5052855;28;20047;-67
2024/02/24 03:34:12;;;;;;;2.75;1.50;;;;;;;;;;5052411;28;20183;-67
2024/02/24 03:36:37;;;;;;;1.60;0.90;;;;;;;;;;5052961;28;20108;-67
2024/02/24 03:39:03;;;;;;;23.80;2.03;;;;;;;;;;5053005;28;20115;-67
2024/02/24 03:41:32;;;;;;;3.30;1.73;;;;;;;;;;5052182;28;20028;-67
2024/02/24 03:43:58;;;;;;;2.45;1.65;;;;;;;;;;5046580;28;20091;-67
2024/02/24 03:46:23;;;;;;;1.98;1.20;;;;;;;;;;5046218;28;20036;-67
2024/02/24 03:48:48;;;;;;;3.63;1.13;;;;;;;;;;5052483;28;20032;-68
2024/02/24 03:51:14;;;;;;;2.55;1.00;;;;;;;;;;5052746;28;20047;-70
2024/02/24 03:53:39;;;;;;;2.33;1.50;;;;;;;;;;5041923;28;20041;-70
2024/02/24 03:56:05;;;;;;;3.80;1.65;;;;;;;;;;5052356;28;20040;-69
2024/02/24 03:58:31;;;;;;;2.30;1.30;;;;;;;;;;5036061;28;20044;-70
2024/02/24 04:00:56;;;;;;;1.50;1.05;;;;;;;;;;5052409;28;20099;-68
2024/02/24 04:03:22;;;;;;;1.23;0.90;;;;;;;;;;5052432;28;20065;-67
2024/02/24 04:05:47;;;;;;;1.70;1.08;;;;;;;;;;5041693;28;20451;-68
2024/02/24 04:08:13;;;;;;;2.03;1.10;;;;;;;;;;5051963;28;20044;-67
2024/02/24 04:10:38;;;;;;;2.17;1.50;;;;;;;;;;5052499;28;20052;-66
2024/02/24 04:13:04;;;;;;;2.75;1.40;;;;;;;;;;5051156;28;20037;-68
2024/02/24 04:15:29;;;;;;;2.97;1.40;;;;;;;;;;5047873;28;20048;-69
2024/02/24 04:17:54;;;;;;;2.33;1.17;;;;;;;;;;5041840;28;20028;-69
2024/02/24 04:20:20;;;;;;;3.40;1.52;;;;;;;;;;5051716;28;20420;-69
2024/02/24 04:22:45;;;;;;;4.85;2.00;;;;;;;;;;5052058;28;20032;-68
2024/02/24 04:25:11;;;;;;;3.17;1.42;;;;;;;;;;5051888;28;20116;-69
2024/02/24 04:27:36;;;;;;;2.00;1.30;;;;;;;;;;5034373;28;20075;-68
2024/02/24 04:30:02;;;;;;;3.88;1.48;;;;;;;;;;5051821;28;20399;-69
2024/02/24 04:32:28;;;;;;;1.17;0.82;;;;;;;;;;5032862;28;20041;-66
2024/02/24 04:34:54;;;;;;;1.73;1.33;;;;;;;;;;5051704;28;20503;-67
2024/02/24 04:37:19;;;;;;;2.78;1.70;;;;;;;;;;5051541;28;20033;-66
2024/02/24 04:39:44;;;;;;;2.40;1.27;;;;;;;;;;5050043;28;20488;-68
2024/02/24 04:42:10;;;;;;;2.72;1.50;;;;;;;;;;5051403;28;20033;-67
2024/02/24 04:44:35;;;;;;;2.33;1.13;;;;;;;;;;5051578;28;20546;-67
2024/02/24 04:47:00;;;;;;;2.63;1.60;;;;;;;;;;5051142;28;20030;-67
2024/02/24 04:49:26;;;;;;;7.25;1.85;;;;;;;;;;5051671;28;20429;-67
2024/02/24 04:51:51;;;;;;;3.42;1.10;;;;;;;;;;5051182;28;20404;-67
2024/02/24 04:54:16;;;;;;;5.00;1.95;;;;;;;;;;5051810;28;20029;-68
2024/02/24 04:56:42;;;;;;;6.60;1.58;;;;;;;;;;5051575;28;20043;-67
2024/02/24 04:59:07;;;;;;;1.88;1.02;;;;;;;;;;5050602;28;20400;-67
2024/02/24 05:01:33;;;;;;;10.10;1.98;;;;;;;;;;5050827;28;20044;-67
2024/02/24 05:03:58;;;;;;;3.13;1.55;;;;;;;;;;5051659;28;20084;-67
2024/02/24 05:06:23;;;;;;;2.63;1.40;;;;;;;;;;5050541;28;20035;-67
2024/02/24 05:08:49;;;;;;;4.28;1.65;;;;;;;;;;5051330;28;20472;-66
2024/02/24 05:11:14;;;;;;;2.33;1.15;;;;;;;;;;5051320;28;20037;-67
2024/02/24 05:13:39;;;;;;;2.60;0.80;;;;;;;;;;5036899;28;20052;-69
2024/02/24 05:16:05;;;;;;;1.20;0.95;;;;;;;;;;5051241;28;20036;-69
2024/02/24 05:18:31;;;;;;;1.98;1.30;;;;;;;;;;5051296;28;20357;-69
2024/02/24 05:20:58;;;;;;;1.98;1.25;;;;;;;;;;5049525;28;20048;-72
2024/02/24 05:23:23;;;;;;;1.50;0.88;;;;;;;;;;5037981;28;20032;-71
2024/02/24 05:25:48;;;;;;;2.00;1.13;;;;;;;;;;5047563;28;20046;-69
2024/02/24 05:28:14;;;;;;;1.90;1.10;;;;;;;;;;5054408;28;20485;-67
2024/02/24 05:30:39;;;;;;;1.38;1.08;;;;;;;;;;5041727;28;20531;-68
2024/02/24 05:33:04;;;;;;;1.88;1.05;;;;;;;;;;5050427;28;20028;-66
2024/02/24 05:35:30;;;;;;;2.78;1.85;;;;;;;;;;5047539;28;20054;-67
2024/02/24 05:37:55;;;;;;;2.33;1.13;;;;;;;;;;5044316;28;20120;-67
2024/02/24 05:40:20;;;;;;;1.25;0.98;;;;;;;;;;5049898;28;20047;-67
2024/02/24 05:42:46;;;;;;;2.05;1.00;;;;;;;;;;5047289;28;20058;-67
2024/02/24 05:45:11;;;;;;;2.10;0.95;;;;;;;;;;5050054;28;20052;-66
2024/02/24 05:47:37;;;;;;;2.53;1.15;;;;;;;;;;5043560;28;20072;-67
2024/02/24 05:50:02;;;;;;;1.83;0.93;;;;;;;;;;5035758;28;20037;-68
2024/02/24 05:52:27;;;;;;;2.33;1.20;;;;;;;;;;5051032;28;20016;-66
2024/02/24 05:54:53;;;;;;;4.88;1.58;;;;;;;;;;5025105;28;20037;-67
2024/02/24 05:57:18;;;;;;;2.45;1.45;;;;;;;;;;5050371;28;20135;-68
2024/02/24 05:59:44;;;;;;;1.65;1.00;;;;;;;;;;5050358;28;20056;-67
2024/02/24 06:02:09;;;;;;;3.70;1.50;;;;;;;;;;5050096;28;20037;-66
2024/02/24 06:04:34;;;;;;;3.95;1.67;;;;;;;;;;5050264;28;20495;-68
2024/02/24 06:07:00;;;;;;;1.85;1.20;;;;;;;;;;5044033;28;20032;-67
2024/02/24 06:09:25;;;;;;;1.25;0.90;;;;;;;;;;5041028;28;20443;-67
2024/02/24 06:11:50;;;;;;;2.63;1.50;;;;;;;;;;5048925;28;21528;-67
2024/02/24 06:14:16;;;;;;;2.55;1.25;;;;;;;;;;5050302;28;20036;-68
2024/02/24 06:16:41;;;;;;;1.80;1.00;;;;;;;;;;5049753;28;20036;-66
2024/02/24 06:19:06;;;;;;;5.50;1.25;;;;;;;;;;5050389;28;20041;-68
2024/02/24 06:21:32;;;;;;;2.17;1.38;;;;;;;;;;5049684;28;20107;-68
2024/02/24 06:23:57;;;;;;;1.60;1.08;;;;;;;;;;5049457;28;20160;-68
2024/02/24 06:26:23;;;;;;;3.17;2.00;;;;;;;;;;5050250;28;20047;-67
2024/02/24 06:28:48;;;;;;;2.10;1.10;;;;;;;;;;5049739;28;20376;-66
2024/02/24 06:31:13;;;;;;;4.22;1.35;;;;;;;;;;5049462;28;20558;-67
2024/02/24 06:33:39;;;;;;;1.98;0.82;;;;;;;;;;5049756;28;20036;-67
2024/02/24 06:36:05;;;;;;;2.38;1.15;;;;;;;;;;5049866;28;20553;-67
2024/02/24 06:38:31;;;;;;;2.75;1.23;;;;;;;;;;5049689;28;20124;-67
2024/02/24 06:40:56;;;;;;;1.52;0.90;;;;;;;;;;5049835;28;20033;-68
2024/02/24 06:43:22;;;;;;;5.90;1.13;;;;;;;;;;5049812;28;20025;-67
2024/02/24 06:45:47;;;;;;;2.00;1.15;;;;;;;;;;5049951;28;20383;-67
2024/02/24 06:48:12;;;;;;;8.10;1.67;;;;;;;;;;5041224;28;21477;-70
2024/02/24 06:50:38;;;;;;;1.30;0.93;;;;;;;;;;5047992;28;20409;-69
2024/02/24 06:53:03;;;;;;;2.20;1.25;;;;;;;;;;5047014;28;20036;-69
2024/02/24 06:55:28;;;;;;;2.38;1.40;;;;;;;;;;5045167;28;20037;-69
2024/02/24 06:57:54;;;;;;;4.15;1.17;;;;;;;;;;5039773;28;20068;-69
2024/02/24 07:00:19;;;;;;;1.63;0.88;;;;;;;;;;5053060;28;20025;-69
